sensor_id;sensor_type;location;lat;lon;timestamp;P1;durP1;ratioP1;P2;durP2;ratioP2
12844;SDS011;6489;48.508;9.206;2023-02-18T00:00:38;2.87;;;1.60;;
12844;SDS011;6489;48.508;9.206;2023-02-18T00:04:00;2.00;;;1.63;;
12844;SDS011;6489;48.508;9.206;2023-02-18T00:07:24;2.43;;;1.40;;
12844;SDS011;6489;48.508;9.206;2023-02-18T00:10:46;1.93;;;1.50;;
12844;SDS011;6489;48.508;9.206;2023-02-18T00:14:11;1.57;;;1.40;;
12844;SDS011;6489;48.508;9.206;2023-02-18T00:17:34;1.60;;;1.50;;
12844;SDS011;6489;48.508;9.206;2023-02-18T00:20:56;1.30;;;1.20;;
12844;SDS011;6489;48.508;9.206;2023-02-18T00:24:19;1.67;;;1.40;;
12844;SDS011;6489;48.508;9.206;2023-02-18T00:27:41;1.43;;;1.30;;
12844;SDS011;6489;48.508;9.206;2023-02-18T00:31:06;1.50;;;1.33;;
12844;SDS011;6489;48.508;9.206;2023-02-18T00:34:28;1.40;;;1.30;;
12844;SDS011;6489;48.508;9.206;2023-02-18T00:37:50;1.50;;;1.40;;
12844;SDS011;6489;48.508;9.206;2023-02-18T00:41:14;1.40;;;1.30;;
12844;SDS011;6489;48.508;9.206;2023-02-18T00:44:37;1.37;;;1.20;;
12844;SDS011;6489;48.508;9.206;2023-02-18T00:47:59;1.33;;;1.23;;
12844;SDS011;6489;48.508;9.206;2023-02-18T00:51:21;1.33;;;1.23;;
12844;SDS011;6489;48.508;9.206;2023-02-18T00:54:44;1.30;;;1.20;;
12844;SDS011;6489;48.508;9.206;2023-02-18T00:58:07;1.30;;;1.20;;
12844;SDS011;6489;48.508;9.206;2023-02-18T01:01:29;1.10;;;1.00;;
12844;SDS011;6489;48.508;9.206;2023-02-18T01:04:51;1.17;;;1.10;;
12844;SDS011;6489;48.508;9.206;2023-02-18T01:08:13;1.70;;;1.60;;
12844;SDS011;6489;48.508;9.206;2023-02-18T01:11:35;3.67;;;3.47;;
12844;SDS011;6489;48.508;9.206;2023-02-18T01:14:58;5.90;;;5.50;;
12844;SDS011;6489;48.508;9.206;2023-02-18T01:18:20;7.93;;;7.37;;
12844;SDS011;6489;48.508;9.206;2023-02-18T01:21:42;8.47;;;7.97;;
12844;SDS011;6489;48.508;9.206;2023-02-18T01:25:05;10.77;;;10.07;;
12844;SDS011;6489;48.508;9.206;2023-02-18T01:28:27;11.70;;;11.00;;
12844;SDS011;6489;48.508;9.206;2023-02-18T01:31:50;10.53;;;9.93;;
12844;SDS011;6489;48.508;9.206;2023-02-18T01:35:13;11.07;;;10.47;;
12844;SDS011;6489;48.508;9.206;2023-02-18T01:38:36;10.97;;;10.27;;
12844;SDS011;6489;48.508;9.206;2023-02-18T01:41:59;10.73;;;10.03;;
12844;SDS011;6489;48.508;9.206;2023-02-18T01:49:16;8.47;;;7.87;;
12844;SDS011;6489;48.508;9.206;2023-02-18T01:52:39;7.80;;;7.30;;
12844;SDS011;6489;48.508;9.206;2023-02-18T01:56:01;6.83;;;6.33;;
12844;SDS011;6489;48.508;9.206;2023-02-18T01:59:27;6.33;;;5.93;;
12844;SDS011;6489;48.508;9.206;2023-02-18T02:02:52;5.70;;;5.30;;
12844;SDS011;6489;48.508;9.206;2023-02-18T02:06:16;4.80;;;4.50;;
12844;SDS011;6489;48.508;9.206;2023-02-18T02:09:40;4.57;;;4.27;;
12844;SDS011;6489;48.508;9.206;2023-02-18T02:13:05;4.07;;;3.83;;
12844;SDS011;6489;48.508;9.206;2023-02-18T02:16:36;3.37;;;3.17;;
12844;SDS011;6489;48.508;9.206;2023-02-18T02:20:15;3.50;;;3.20;;
12844;SDS011;6489;48.508;9.206;2023-02-18T02:24:10;3.40;;;3.10;;
12844;SDS011;6489;48.508;9.206;2023-02-18T02:28:09;2.90;;;2.70;;
12844;SDS011;6489;48.508;9.206;2023-02-18T02:31:49;2.80;;;2.60;;
12844;SDS011;6489;48.508;9.206;2023-02-18T02:35:24;2.20;;;2.10;;
12844;SDS011;6489;48.508;9.206;2023-02-18T02:38:53;2.30;;;2.10;;
12844;SDS011;6489;48.508;9.206;2023-02-18T02:42:22;2.00;;;1.90;;
12844;SDS011;6489;48.508;9.206;2023-02-18T02:45:50;1.90;;;1.80;;
12844;SDS011;6489;48.508;9.206;2023-02-18T02:49:23;2.10;;;1.90;;
12844;SDS011;6489;48.508;9.206;2023-02-18T02:52:53;1.83;;;1.70;;
12844;SDS011;6489;48.508;9.206;2023-02-18T02:56:21;1.63;;;1.53;;
12844;SDS011;6489;48.508;9.206;2023-02-18T02:59:45;1.77;;;1.67;;
12844;SDS011;6489;48.508;9.206;2023-02-18T03:03:14;2.80;;;1.77;;
12844;SDS011;6489;48.508;9.206;2023-02-18T03:06:55;1.47;;;1.37;;
12844;SDS011;6489;48.508;9.206;2023-02-18T03:10:31;1.70;;;1.60;;
12844;SDS011;6489;48.508;9.206;2023-02-18T03:14:04;1.50;;;1.40;;
12844;SDS011;6489;48.508;9.206;2023-02-18T03:17:35;1.80;;;1.70;;
12844;SDS011;6489;48.508;9.206;2023-02-18T03:21:04;4.43;;;4.20;;
12844;SDS011;6489;48.508;9.206;2023-02-18T03:24:30;7.93;;;7.43;;
12844;SDS011;6489;48.508;9.206;2023-02-18T03:27:57;9.60;;;9.00;;
12844;SDS011;6489;48.508;9.206;2023-02-18T03:31:23;11.33;;;10.63;;
12844;SDS011;6489;48.508;9.206;2023-02-18T03:34:49;12.63;;;11.83;;
12844;SDS011;6489;48.508;9.206;2023-02-18T03:38:17;14.47;;;13.40;;
12844;SDS011;6489;48.508;9.206;2023-02-18T03:41:40;12.70;;;12.00;;
12844;SDS011;6489;48.508;9.206;2023-02-18T03:45:03;12.67;;;11.87;;
12844;SDS011;6489;48.508;9.206;2023-02-18T03:48:25;13.47;;;12.67;;
12844;SDS011;6489;48.508;9.206;2023-02-18T03:51:47;12.77;;;11.87;;
12844;SDS011;6489;48.508;9.206;2023-02-18T03:55:09;10.77;;;10.17;;
12844;SDS011;6489;48.508;9.206;2023-02-18T03:58:31;11.03;;;10.43;;
12844;SDS011;6489;48.508;9.206;2023-02-18T04:01:54;9.10;;;8.60;;
12844;SDS011;6489;48.508;9.206;2023-02-18T04:05:16;9.80;;;9.10;;
12844;SDS011;6489;48.508;9.206;2023-02-18T04:08:38;7.53;;;7.03;;
12844;SDS011;6489;48.508;9.206;2023-02-18T04:12:00;7.13;;;6.70;;
12844;SDS011;6489;48.508;9.206;2023-02-18T04:15:22;6.47;;;6.07;;
12844;SDS011;6489;48.508;9.206;2023-02-18T04:18:45;5.27;;;4.97;;
12844;SDS011;6489;48.508;9.206;2023-02-18T04:22:07;5.00;;;4.60;;
12844;SDS011;6489;48.508;9.206;2023-02-18T04:25:29;4.50;;;4.20;;
12844;SDS011;6489;48.508;9.206;2023-02-18T04:28:51;3.97;;;3.77;;
12844;SDS011;6489;48.508;9.206;2023-02-18T04:32:12;3.27;;;3.07;;
12844;SDS011;6489;48.508;9.206;2023-02-18T04:35:36;3.30;;;3.00;;
12844;SDS011;6489;48.508;9.206;2023-02-18T04:38:59;2.70;;;2.60;;
12844;SDS011;6489;48.508;9.206;2023-02-18T04:42:21;3.07;;;2.80;;
12844;SDS011;6489;48.508;9.206;2023-02-18T04:45:43;2.43;;;2.33;;
12844;SDS011;6489;48.508;9.206;2023-02-18T04:49:05;2.60;;;2.40;;
12844;SDS011;6489;48.508;9.206;2023-02-18T04:52:28;2.13;;;2.03;;
12844;SDS011;6489;48.508;9.206;2023-02-18T04:55:50;2.20;;;2.00;;
12844;SDS011;6489;48.508;9.206;2023-02-18T04:59:13;2.00;;;1.90;;
12844;SDS011;6489;48.508;9.206;2023-02-18T05:02:35;2.10;;;1.90;;
12844;SDS011;6489;48.508;9.206;2023-02-18T05:05:57;2.30;;;1.87;;
12844;SDS011;6489;48.508;9.206;2023-02-18T05:09:20;1.80;;;1.70;;
12844;SDS011;6489;48.508;9.206;2023-02-18T05:12:42;1.57;;;1.47;;
12844;SDS011;6489;48.508;9.206;2023-02-18T05:16:05;3.37;;;1.80;;
12844;SDS011;6489;48.508;9.206;2023-02-18T05:19:26;1.60;;;1.50;;
12844;SDS011;6489;48.508;9.206;2023-02-18T05:22:48;1.60;;;1.50;;
12844;SDS011;6489;48.508;9.206;2023-02-18T05:26:12;1.77;;;1.67;;
12844;SDS011;6489;48.508;9.206;2023-02-18T05:29:33;1.63;;;1.50;;
12844;SDS011;6489;48.508;9.206;2023-02-18T05:32:55;1.50;;;1.40;;
12844;SDS011;6489;48.508;9.206;2023-02-18T05:36:17;1.97;;;1.60;;
12844;SDS011;6489;48.508;9.206;2023-02-18T05:39:39;1.57;;;1.47;;
12844;SDS011;6489;48.508;9.206;2023-02-18T05:43:02;1.77;;;1.40;;
12844;SDS011;6489;48.508;9.206;2023-02-18T05:46:24;1.30;;;1.30;;
12844;SDS011;6489;48.508;9.206;2023-02-18T05:49:46;1.80;;;1.37;;
12844;SDS011;6489;48.508;9.206;2023-02-18T05:53:08;1.27;;;1.27;;
12844;SDS011;6489;48.508;9.206;2023-02-18T05:56:29;1.33;;;1.20;;
12844;SDS011;6489;48.508;9.206;2023-02-18T05:59:53;1.00;;;1.00;;
12844;SDS011;6489;48.508;9.206;2023-02-18T06:03:14;1.67;;;1.30;;
12844;SDS011;6489;48.508;9.206;2023-02-18T06:06:36;1.20;;;1.20;;
12844;SDS011;6489;48.508;9.206;2023-02-18T06:09:58;1.47;;;1.20;;
12844;SDS011;6489;48.508;9.206;2023-02-18T06:13:20;1.10;;;1.10;;
12844;SDS011;6489;48.508;9.206;2023-02-18T06:16:43;1.47;;;1.20;;
12844;SDS011;6489;48.508;9.206;2023-02-18T06:20:05;1.10;;;1.10;;
12844;SDS011;6489;48.508;9.206;2023-02-18T06:23:28;2.30;;;1.20;;
12844;SDS011;6489;48.508;9.206;2023-02-18T06:26:49;1.20;;;1.10;;
12844;SDS011;6489;48.508;9.206;2023-02-18T06:30:11;1.30;;;1.07;;
12844;SDS011;6489;48.508;9.206;2023-02-18T06:33:35;1.30;;;1.20;;
12844;SDS011;6489;48.508;9.206;2023-02-18T06:36:57;1.10;;;1.10;;
12844;SDS011;6489;48.508;9.206;2023-02-18T06:40:19;1.00;;;1.00;;
12844;SDS011;6489;48.508;9.206;2023-02-18T06:43:40;1.23;;;0.90;;
12844;SDS011;6489;48.508;9.206;2023-02-18T06:47:02;1.10;;;1.00;;
12844;SDS011;6489;48.508;9.206;2023-02-18T06:50:26;1.30;;;1.00;;
12844;SDS011;6489;48.508;9.206;2023-02-18T06:53:47;1.03;;;1.00;;
12844;SDS011;6489;48.508;9.206;2023-02-18T06:57:09;1.47;;;1.10;;
12844;SDS011;6489;48.508;9.206;2023-02-18T07:00:31;0.80;;;0.80;;
12844;SDS011;6489;48.508;9.206;2023-02-18T07:03:53;1.20;;;1.00;;
12844;SDS011;6489;48.508;9.206;2023-02-18T07:07:16;1.00;;;0.90;;
12844;SDS011;6489;48.508;9.206;2023-02-18T07:10:38;1.47;;;1.00;;
12844;SDS011;6489;48.508;9.206;2023-02-18T07:14:00;1.07;;;0.97;;
12844;SDS011;6489;48.508;9.206;2023-02-18T07:17:22;0.83;;;0.83;;
12844;SDS011;6489;48.508;9.206;2023-02-18T07:20:44;1.47;;;1.00;;
12844;SDS011;6489;48.508;9.206;2023-02-18T07:24:07;1.03;;;0.77;;
12844;SDS011;6489;48.508;9.206;2023-02-18T07:27:29;1.20;;;0.80;;
12844;SDS011;6489;48.508;9.206;2023-02-18T07:30:51;0.97;;;0.90;;
12844;SDS011;6489;48.508;9.206;2023-02-18T07:34:12;0.80;;;0.80;;
12844;SDS011;6489;48.508;9.206;2023-02-18T07:37:34;1.13;;;1.00;;
12844;SDS011;6489;48.508;9.206;2023-02-18T07:40:57;0.83;;;0.83;;
12844;SDS011;6489;48.508;9.206;2023-02-18T07:44:20;0.90;;;0.90;;
12844;SDS011;6489;48.508;9.206;2023-02-18T07:47:41;0.83;;;0.83;;
12844;SDS011;6489;48.508;9.206;2023-02-18T07:51:04;0.93;;;0.80;;
12844;SDS011;6489;48.508;9.206;2023-02-18T07:54:27;0.80;;;0.80;;
12844;SDS011;6489;48.508;9.206;2023-02-18T07:57:50;0.90;;;0.90;;
12844;SDS011;6489;48.508;9.206;2023-02-18T08:01:20;1.60;;;1.00;;
12844;SDS011;6489;48.508;9.206;2023-02-18T08:04:41;1.53;;;1.00;;
12844;SDS011;6489;48.508;9.206;2023-02-18T08:08:03;0.90;;;0.83;;
12844;SDS011;6489;48.508;9.206;2023-02-18T08:11:25;1.27;;;0.90;;
12844;SDS011;6489;48.508;9.206;2023-02-18T08:14:49;0.90;;;0.90;;
12844;SDS011;6489;48.508;9.206;2023-02-18T08:18:13;1.57;;;0.90;;
12844;SDS011;6489;48.508;9.206;2023-02-18T08:21:37;1.10;;;0.87;;
12844;SDS011;6489;48.508;9.206;2023-02-18T08:24:59;2.27;;;1.00;;
12844;SDS011;6489;48.508;9.206;2023-02-18T08:28:21;0.80;;;0.80;;
12844;SDS011;6489;48.508;9.206;2023-02-18T08:31:45;1.23;;;0.77;;
12844;SDS011;6489;48.508;9.206;2023-02-18T08:35:09;0.80;;;0.80;;
12844;SDS011;6489;48.508;9.206;2023-02-18T08:38:31;0.80;;;0.80;;
12844;SDS011;6489;48.508;9.206;2023-02-18T08:41:53;1.00;;;0.90;;
12844;SDS011;6489;48.508;9.206;2023-02-18T08:45:18;1.23;;;0.90;;
12844;SDS011;6489;48.508;9.206;2023-02-18T08:48:41;0.80;;;0.80;;
12844;SDS011;6489;48.508;9.206;2023-02-18T08:52:03;1.77;;;1.00;;
12844;SDS011;6489;48.508;9.206;2023-02-18T08:55:25;0.90;;;0.90;;
12844;SDS011;6489;48.508;9.206;2023-02-18T08:58:47;1.53;;;1.07;;
12844;SDS011;6489;48.508;9.206;2023-02-18T09:02:09;0.80;;;0.80;;
12844;SDS011;6489;48.508;9.206;2023-02-18T09:05:34;1.67;;;1.10;;
12844;SDS011;6489;48.508;9.206;2023-02-18T09:08:56;0.60;;;0.60;;
12844;SDS011;6489;48.508;9.206;2023-02-18T09:12:18;1.90;;;1.00;;
12844;SDS011;6489;48.508;9.206;2023-02-18T09:15:40;1.30;;;1.20;;
12844;SDS011;6489;48.508;9.206;2023-02-18T09:19:01;1.80;;;1.10;;
12844;SDS011;6489;48.508;9.206;2023-02-18T09:22:25;0.83;;;0.83;;
12844;SDS011;6489;48.508;9.206;2023-02-18T09:25:49;2.17;;;1.10;;
12844;SDS011;6489;48.508;9.206;2023-02-18T09:29:10;0.90;;;0.90;;
12844;SDS011;6489;48.508;9.206;2023-02-18T09:32:32;1.33;;;0.70;;
12844;SDS011;6489;48.508;9.206;2023-02-18T09:35:54;1.20;;;1.10;;
12844;SDS011;6489;48.508;9.206;2023-02-18T09:39:17;1.60;;;1.00;;
12844;SDS011;6489;48.508;9.206;2023-02-18T09:42:39;1.13;;;0.90;;
12844;SDS011;6489;48.508;9.206;2023-02-18T09:46:02;1.23;;;1.00;;
12844;SDS011;6489;48.508;9.206;2023-02-18T09:49:27;0.97;;;0.93;;
12844;SDS011;6489;48.508;9.206;2023-02-18T09:52:52;1.20;;;1.10;;
12844;SDS011;6489;48.508;9.206;2023-02-18T09:56:16;1.07;;;0.97;;
12844;SDS011;6489;48.508;9.206;2023-02-18T09:59:43;0.90;;;0.90;;
12844;SDS011;6489;48.508;9.206;2023-02-18T10:03:07;1.33;;;0.90;;
12844;SDS011;6489;48.508;9.206;2023-02-18T10:06:34;0.90;;;0.90;;
12844;SDS011;6489;48.508;9.206;2023-02-18T10:09:58;1.70;;;1.10;;
12844;SDS011;6489;48.508;9.206;2023-02-18T10:13:30;1.10;;;1.00;;
12844;SDS011;6489;48.508;9.206;2023-02-18T10:16:54;0.90;;;0.90;;
12844;SDS011;6489;48.508;9.206;2023-02-18T10:20:19;1.10;;;1.00;;
12844;SDS011;6489;48.508;9.206;2023-02-18T10:23:46;1.00;;;1.00;;
12844;SDS011;6489;48.508;9.206;2023-02-18T10:27:15;1.43;;;1.03;;
12844;SDS011;6489;48.508;9.206;2023-02-18T10:30:45;1.00;;;0.93;;
12844;SDS011;6489;48.508;9.206;2023-02-18T10:34:14;1.07;;;1.00;;
12844;SDS011;6489;48.508;9.206;2023-02-18T10:37:46;1.90;;;1.00;;
12844;SDS011;6489;48.508;9.206;2023-02-18T10:41:18;0.90;;;0.90;;
12844;SDS011;6489;48.508;9.206;2023-02-18T10:44:50;1.47;;;1.00;;
12844;SDS011;6489;48.508;9.206;2023-02-18T10:48:31;0.80;;;0.80;;
12844;SDS011;6489;48.508;9.206;2023-02-18T10:52:04;2.30;;;1.00;;
12844;SDS011;6489;48.508;9.206;2023-02-18T10:55:33;0.90;;;0.90;;
12844;SDS011;6489;48.508;9.206;2023-02-18T10:59:00;0.90;;;0.80;;
12844;SDS011;6489;48.508;9.206;2023-02-18T11:02:26;1.17;;;0.90;;
12844;SDS011;6489;48.508;9.206;2023-02-18T11:05:54;0.80;;;0.80;;
12844;SDS011;6489;48.508;9.206;2023-02-18T11:09:31;3.13;;;1.13;;
12844;SDS011;6489;48.508;9.206;2023-02-18T11:13:01;2.03;;;1.13;;
12844;SDS011;6489;48.508;9.206;2023-02-18T11:16:34;1.00;;;0.87;;
12844;SDS011;6489;48.508;9.206;2023-02-18T11:19:58;0.90;;;0.90;;
12844;SDS011;6489;48.508;9.206;2023-02-18T11:23:23;2.73;;;1.10;;
12844;SDS011;6489;48.508;9.206;2023-02-18T11:26:45;0.93;;;0.80;;
12844;SDS011;6489;48.508;9.206;2023-02-18T11:30:15;1.83;;;1.10;;
12844;SDS011;6489;48.508;9.206;2023-02-18T11:33:40;1.13;;;0.90;;
12844;SDS011;6489;48.508;9.206;2023-02-18T11:37:08;2.10;;;1.23;;
12844;SDS011;6489;48.508;9.206;2023-02-18T11:40:34;1.00;;;0.90;;
12844;SDS011;6489;48.508;9.206;2023-02-18T11:43:57;0.93;;;0.80;;
12844;SDS011;6489;48.508;9.206;2023-02-18T11:47:23;1.63;;;0.70;;
12844;SDS011;6489;48.508;9.206;2023-02-18T11:50:49;1.27;;;1.17;;
12844;SDS011;6489;48.508;9.206;2023-02-18T11:54:20;1.53;;;1.13;;
12844;SDS011;6489;48.508;9.206;2023-02-18T11:57:46;2.30;;;1.03;;
12844;SDS011;6489;48.508;9.206;2023-02-18T12:01:12;1.53;;;1.00;;
12844;SDS011;6489;48.508;9.206;2023-02-18T12:04:39;1.27;;;0.90;;
12844;SDS011;6489;48.508;9.206;2023-02-18T12:08:04;0.80;;;0.80;;
12844;SDS011;6489;48.508;9.206;2023-02-18T12:11:32;1.43;;;0.90;;
12844;SDS011;6489;48.508;9.206;2023-02-18T12:14:59;2.10;;;0.97;;
12844;SDS011;6489;48.508;9.206;2023-02-18T12:18:32;0.80;;;0.80;;
12844;SDS011;6489;48.508;9.206;2023-02-18T12:22:08;0.90;;;0.70;;
12844;SDS011;6489;48.508;9.206;2023-02-18T12:25:38;1.80;;;1.00;;
12844;SDS011;6489;48.508;9.206;2023-02-18T12:29:08;0.90;;;0.90;;
12844;SDS011;6489;48.508;9.206;2023-02-18T12:32:43;0.93;;;0.93;;
12844;SDS011;6489;48.508;9.206;2023-02-18T12:36:12;1.00;;;0.80;;
12844;SDS011;6489;48.508;9.206;2023-02-18T12:39:56;1.00;;;0.90;;
12844;SDS011;6489;48.508;9.206;2023-02-18T12:43:31;1.60;;;1.10;;
12844;SDS011;6489;48.508;9.206;2023-02-18T12:47:07;0.90;;;0.90;;
12844;SDS011;6489;48.508;9.206;2023-02-18T12:51:05;0.80;;;0.80;;
12844;SDS011;6489;48.508;9.206;2023-02-18T12:55:01;1.33;;;0.97;;
12844;SDS011;6489;48.508;9.206;2023-02-18T12:58:45;1.00;;;0.90;;
12844;SDS011;6489;48.508;9.206;2023-02-18T13:02:20;2.20;;;1.10;;
12844;SDS011;6489;48.508;9.206;2023-02-18T13:06:02;2.13;;;1.10;;
12844;SDS011;6489;48.508;9.206;2023-02-18T13:09:38;3.37;;;1.10;;
12844;SDS011;6489;48.508;9.206;2023-02-18T13:13:12;2.10;;;1.00;;
12844;SDS011;6489;48.508;9.206;2023-02-18T13:16:38;2.43;;;1.30;;
12844;SDS011;6489;48.508;9.206;2023-02-18T13:20:04;2.10;;;1.10;;
12844;SDS011;6489;48.508;9.206;2023-02-18T13:23:36;6.00;;;1.70;;
12844;SDS011;6489;48.508;9.206;2023-02-18T13:27:02;2.07;;;1.20;;
12844;SDS011;6489;48.508;9.206;2023-02-18T13:30:35;3.03;;;1.10;;
12844;SDS011;6489;48.508;9.206;2023-02-18T13:34:03;1.93;;;1.30;;
12844;SDS011;6489;48.508;9.206;2023-02-18T13:37:34;1.37;;;1.13;;
12844;SDS011;6489;48.508;9.206;2023-02-18T13:41:12;1.07;;;0.97;;
12844;SDS011;6489;48.508;9.206;2023-02-18T13:48:25;2.10;;;1.10;;
12844;SDS011;6489;48.508;9.206;2023-02-18T13:51:48;4.40;;;1.23;;
12844;SDS011;6489;48.508;9.206;2023-02-18T13:55:15;1.60;;;1.20;;
12844;SDS011;6489;48.508;9.206;2023-02-18T13:58:43;2.77;;;1.33;;
12844;SDS011;6489;48.508;9.206;2023-02-18T14:02:30;4.27;;;1.50;;
12844;SDS011;6489;48.508;9.206;2023-02-18T14:05:54;3.60;;;1.43;;
12844;SDS011;6489;48.508;9.206;2023-02-18T14:13:02;3.77;;;1.30;;
12844;SDS011;6489;48.508;9.206;2023-02-18T14:21:04;1.80;;;1.10;;
12844;SDS011;6489;48.508;9.206;2023-02-18T14:24:48;1.27;;;1.00;;
12844;SDS011;6489;48.508;9.206;2023-02-18T14:28:36;3.37;;;1.73;;
12844;SDS011;6489;48.508;9.206;2023-02-18T14:32:01;6.07;;;1.60;;
12844;SDS011;6489;48.508;9.206;2023-02-18T14:35:26;2.33;;;1.40;;
12844;SDS011;6489;48.508;9.206;2023-02-18T14:39:13;3.30;;;1.50;;
12844;SDS011;6489;48.508;9.206;2023-02-18T14:42:54;3.53;;;1.70;;
12844;SDS011;6489;48.508;9.206;2023-02-18T14:46:25;7.50;;;2.10;;
12844;SDS011;6489;48.508;9.206;2023-02-18T14:49:55;6.03;;;1.77;;
12844;SDS011;6489;48.508;9.206;2023-02-18T14:53:20;1.20;;;1.10;;
12844;SDS011;6489;48.508;9.206;2023-02-18T14:56:50;3.67;;;1.50;;
12844;SDS011;6489;48.508;9.206;2023-02-18T15:00:15;4.27;;;1.43;;
12844;SDS011;6489;48.508;9.206;2023-02-18T15:03:40;2.30;;;1.23;;
12844;SDS011;6489;48.508;9.206;2023-02-18T15:07:03;4.93;;;1.33;;
12844;SDS011;6489;48.508;9.206;2023-02-18T15:10:34;7.67;;;3.50;;
12844;SDS011;6489;48.508;9.206;2023-02-18T15:13:58;4.07;;;2.13;;
12844;SDS011;6489;48.508;9.206;2023-02-18T17:04:28;2.73;;;1.60;;
12844;SDS011;6489;48.508;9.206;2023-02-18T17:07:50;2.90;;;1.50;;
12844;SDS011;6489;48.508;9.206;2023-02-18T17:11:17;1.97;;;1.37;;
12844;SDS011;6489;48.508;9.206;2023-02-18T17:23:31;4.93;;;1.63;;
12844;SDS011;6489;48.508;9.206;2023-02-18T17:26:52;2.13;;;1.30;;
12844;SDS011;6489;48.508;9.206;2023-02-18T17:30:14;5.77;;;2.07;;
12844;SDS011;6489;48.508;9.206;2023-02-18T17:33:37;10.17;;;2.70;;
12844;SDS011;6489;48.508;9.206;2023-02-18T17:36:59;10.93;;;2.30;;
12844;SDS011;6489;48.508;9.206;2023-02-18T17:40:23;8.73;;;2.43;;
12844;SDS011;6489;48.508;9.206;2023-02-18T17:43:47;5.60;;;2.33;;
12844;SDS011;6489;48.508;9.206;2023-02-18T17:47:09;8.73;;;2.80;;
12844;SDS011;6489;48.508;9.206;2023-02-18T17:50:30;7.97;;;2.00;;
12844;SDS011;6489;48.508;9.206;2023-02-18T17:53:52;7.57;;;2.00;;
12844;SDS011;6489;48.508;9.206;2023-02-18T17:57:16;7.43;;;1.87;;
12844;SDS011;6489;48.508;9.206;2023-02-18T18:00:39;5.53;;;2.20;;
12844;SDS011;6489;48.508;9.206;2023-02-18T18:04:02;10.17;;;2.00;;
12844;SDS011;6489;48.508;9.206;2023-02-18T18:07:24;7.47;;;2.00;;
12844;SDS011;6489;48.508;9.206;2023-02-18T18:10:46;5.43;;;2.10;;
12844;SDS011;6489;48.508;9.206;2023-02-18T18:14:13;6.97;;;2.33;;
12844;SDS011;6489;48.508;9.206;2023-02-18T18:17:35;8.73;;;2.33;;
12844;SDS011;6489;48.508;9.206;2023-02-18T18:20:57;10.03;;;2.80;;
12844;SDS011;6489;48.508;9.206;2023-02-18T18:24:21;21.57;;;3.77;;
12844;SDS011;6489;48.508;9.206;2023-02-18T18:27:43;12.90;;;3.33;;
12844;SDS011;6489;48.508;9.206;2023-02-18T18:31:08;13.33;;;3.63;;
12844;SDS011;6489;48.508;9.206;2023-02-18T18:34:32;7.90;;;2.90;;
12844;SDS011;6489;48.508;9.206;2023-02-18T18:37:54;6.70;;;3.03;;
12844;SDS011;6489;48.508;9.206;2023-02-18T18:41:17;6.90;;;2.53;;
12844;SDS011;6489;48.508;9.206;2023-02-18T18:44:40;7.17;;;2.40;;
12844;SDS011;6489;48.508;9.206;2023-02-18T18:48:04;6.80;;;2.40;;
12844;SDS011;6489;48.508;9.206;2023-02-18T18:51:27;21.23;;;3.30;;
12844;SDS011;6489;48.508;9.206;2023-02-18T18:54:51;19.00;;;3.70;;
12844;SDS011;6489;48.508;9.206;2023-02-18T18:58:13;11.00;;;3.23;;
12844;SDS011;6489;48.508;9.206;2023-02-18T19:01:39;7.47;;;2.90;;
12844;SDS011;6489;48.508;9.206;2023-02-18T19:05:02;9.60;;;2.83;;
12844;SDS011;6489;48.508;9.206;2023-02-18T19:08:27;8.53;;;2.33;;
12844;SDS011;6489;48.508;9.206;2023-02-18T19:11:50;6.00;;;2.57;;
12844;SDS011;6489;48.508;9.206;2023-02-18T19:15:13;10.93;;;2.80;;
12844;SDS011;6489;48.508;9.206;2023-02-18T19:18:36;7.10;;;2.93;;
12844;SDS011;6489;48.508;9.206;2023-02-18T19:22:00;6.70;;;2.50;;
12844;SDS011;6489;48.508;9.206;2023-02-18T19:25:22;8.73;;;2.20;;
12844;SDS011;6489;48.508;9.206;2023-02-18T19:28:44;4.80;;;2.40;;
12844;SDS011;6489;48.508;9.206;2023-02-18T19:32:06;7.03;;;2.00;;
12844;SDS011;6489;48.508;9.206;2023-02-18T19:35:28;6.77;;;2.20;;
12844;SDS011;6489;48.508;9.206;2023-02-18T19:38:52;5.53;;;2.33;;
12844;SDS011;6489;48.508;9.206;2023-02-18T19:42:17;6.63;;;2.33;;
12844;SDS011;6489;48.508;9.206;2023-02-18T19:45:39;6.87;;;2.20;;
12844;SDS011;6489;48.508;9.206;2023-02-18T19:49:02;3.50;;;1.70;;
12844;SDS011;6489;48.508;9.206;2023-02-18T19:52:24;4.57;;;1.97;;
12844;SDS011;6489;48.508;9.206;2023-02-18T19:55:55;8.47;;;2.40;;
12844;SDS011;6489;48.508;9.206;2023-02-18T19:59:17;4.10;;;2.03;;
12844;SDS011;6489;48.508;9.206;2023-02-18T20:02:40;6.40;;;2.23;;
12844;SDS011;6489;48.508;9.206;2023-02-18T20:06:02;4.17;;;2.10;;
12844;SDS011;6489;48.508;9.206;2023-02-18T20:09:25;6.47;;;2.03;;
12844;SDS011;6489;48.508;9.206;2023-02-18T20:12:51;5.37;;;2.10;;
12844;SDS011;6489;48.508;9.206;2023-02-18T20:16:13;5.50;;;1.73;;
12844;SDS011;6489;48.508;9.206;2023-02-18T20:19:35;5.00;;;2.03;;
12844;SDS011;6489;48.508;9.206;2023-02-18T20:22:57;5.23;;;1.83;;
12844;SDS011;6489;48.508;9.206;2023-02-18T20:26:19;4.83;;;1.97;;
12844;SDS011;6489;48.508;9.206;2023-02-18T20:29:42;4.17;;;1.87;;
12844;SDS011;6489;48.508;9.206;2023-02-18T20:33:04;6.37;;;2.00;;
12844;SDS011;6489;48.508;9.206;2023-02-18T20:36:26;2.67;;;1.70;;
12844;SDS011;6489;48.508;9.206;2023-02-18T20:39:48;6.23;;;2.30;;
12844;SDS011;6489;48.508;9.206;2023-02-18T20:43:10;2.60;;;1.47;;
12844;SDS011;6489;48.508;9.206;2023-02-18T20:46:33;5.30;;;1.87;;
12844;SDS011;6489;48.508;9.206;2023-02-18T20:49:56;5.13;;;1.50;;
12844;SDS011;6489;48.508;9.206;2023-02-18T20:53:18;3.67;;;1.57;;
12844;SDS011;6489;48.508;9.206;2023-02-18T20:56:40;2.70;;;1.60;;
12844;SDS011;6489;48.508;9.206;2023-02-18T21:00:04;4.97;;;1.97;;
12844;SDS011;6489;48.508;9.206;2023-02-18T21:03:28;2.17;;;1.60;;
12844;SDS011;6489;48.508;9.206;2023-02-18T21:06:50;4.47;;;2.00;;
12844;SDS011;6489;48.508;9.206;2023-02-18T21:10:13;5.50;;;1.97;;
12844;SDS011;6489;48.508;9.206;2023-02-18T21:13:35;3.30;;;1.63;;
12844;SDS011;6489;48.508;9.206;2023-02-18T21:16:57;5.30;;;1.60;;
12844;SDS011;6489;48.508;9.206;2023-02-18T21:20:20;4.60;;;1.83;;
12844;SDS011;6489;48.508;9.206;2023-02-18T21:23:42;4.97;;;2.20;;
12844;SDS011;6489;48.508;9.206;2023-02-18T21:27:04;3.50;;;1.90;;
12844;SDS011;6489;48.508;9.206;2023-02-18T21:30:26;2.97;;;1.83;;
12844;SDS011;6489;48.508;9.206;2023-02-18T21:33:48;2.90;;;1.77;;
12844;SDS011;6489;48.508;9.206;2023-02-18T21:37:11;2.37;;;2.00;;
12844;SDS011;6489;48.508;9.206;2023-02-18T21:40:35;4.23;;;2.60;;
12844;SDS011;6489;48.508;9.206;2023-02-18T21:43:57;4.00;;;3.60;;
12844;SDS011;6489;48.508;9.206;2023-02-18T21:47:19;6.03;;;4.03;;
12844;SDS011;6489;48.508;9.206;2023-02-18T21:50:41;5.03;;;4.53;;
12844;SDS011;6489;48.508;9.206;2023-02-18T21:54:04;5.37;;;4.87;;
12844;SDS011;6489;48.508;9.206;2023-02-18T21:57:26;5.50;;;5.10;;
12844;SDS011;6489;48.508;9.206;2023-02-18T22:00:54;6.17;;;5.00;;
12844;SDS011;6489;48.508;9.206;2023-02-18T22:04:17;4.57;;;4.27;;
12844;SDS011;6489;48.508;9.206;2023-02-18T22:07:39;5.97;;;5.07;;
12844;SDS011;6489;48.508;9.206;2023-02-18T22:11:04;4.93;;;4.43;;
12844;SDS011;6489;48.508;9.206;2023-02-18T22:14:26;6.47;;;4.30;;
12844;SDS011;6489;48.508;9.206;2023-02-18T22:17:48;5.03;;;4.03;;
12844;SDS011;6489;48.508;9.206;2023-02-18T22:21:10;4.53;;;3.70;;
12844;SDS011;6489;48.508;9.206;2023-02-18T22:24:32;4.27;;;3.73;;
12844;SDS011;6489;48.508;9.206;2023-02-18T22:27:55;4.43;;;3.63;;
12844;SDS011;6489;48.508;9.206;2023-02-18T22:31:17;3.77;;;3.40;;
12844;SDS011;6489;48.508;9.206;2023-02-18T22:34:39;3.90;;;3.33;;
12844;SDS011;6489;48.508;9.206;2023-02-18T22:38:01;4.43;;;3.00;;
12844;SDS011;6489;48.508;9.206;2023-02-18T22:41:24;3.30;;;2.60;;
12844;SDS011;6489;48.508;9.206;2023-02-18T22:44:48;3.10;;;2.70;;
12844;SDS011;6489;48.508;9.206;2023-02-18T22:48:12;4.87;;;2.30;;
12844;SDS011;6489;48.508;9.206;2023-02-18T22:51:35;2.60;;;2.40;;
12844;SDS011;6489;48.508;9.206;2023-02-18T22:54:58;3.37;;;2.40;;
12844;SDS011;6489;48.508;9.206;2023-02-18T22:58:20;3.90;;;2.50;;
12844;SDS011;6489;48.508;9.206;2023-02-18T23:01:44;3.40;;;1.90;;
12844;SDS011;6489;48.508;9.206;2023-02-18T23:05:08;2.33;;;2.00;;